sensor_id;sensor_type;location;lat;lon;timestamp;P1;P2;P0
74430;PMS7003;62863;52.062;23.764;2023-08-06T00:00:51;15.8;15;11.2
74430;PMS7003;62863;52.062;23.764;2023-08-06T00:05:19;19;16.8;12.3
74430;PMS7003;62863;52.062;23.764;2023-08-06T00:10:43;20;15.8;12
74430;PMS7003;62863;52.062;23.764;2023-08-06T00:16:08;18.6;16.4;13.2
74430;PMS7003;62863;52.062;23.764;2023-08-06T00:20:41;19;17;13
74430;PMS7003;62863;52.062;23.764;2023-08-06T00:25:27;18;16.8;12.8
74430;PMS7003;62863;52.062;23.764;2023-08-06T00:30:52;17.2;16;12.6
74430;PMS7003;62863;52.062;23.764;2023-08-06T00:36:01;20.8;18.4;14.4
74430;PMS7003;62863;52.062;23.764;2023-08-06T00:40:41;20.8;18.4;13.8
74430;PMS7003;62863;52.062;23.764;2023-08-06T00:45:19;19.4;18;14
74430;PMS7003;62863;52.062;23.764;2023-08-06T00:50:51;23.2;20.4;15.2
74430;PMS7003;62863;52.062;23.764;2023-08-06T00:55:41;20.2;19.2;13.8
74430;PMS7003;62863;52.062;23.764;2023-08-06T01:00:33;22.6;19.4;14.2
74430;PMS7003;62863;52.062;23.764;2023-08-06T01:05:33;20.5;19.8;14.8
74430;PMS7003;62863;52.062;23.764;2023-08-06T01:11:01;22;20.2;14.4
74430;PMS7003;62863;52.062;23.764;2023-08-06T01:15:19;22;19;14.4
74430;PMS7003;62863;52.062;23.764;2023-08-06T01:20:33;19.6;18.4;13.6
74430;PMS7003;62863;52.062;23.764;2023-08-06T01:26:02;22.8;20.8;15.2
74430;PMS7003;62863;52.062;23.764;2023-08-06T01:30:51;22.8;19.6;14.6
74430;PMS7003;62863;52.062;23.764;2023-08-06T01:35:33;22;20.2;15.2
74430;PMS7003;62863;52.062;23.764;2023-08-06T01:40:33;19.6;19.4;14.8
74430;PMS7003;62863;52.062;23.764;2023-08-06T01:45:43;22.6;20.2;15.2
74430;PMS7003;62863;52.062;23.764;2023-08-06T01:50:25;21.4;19.6;14.8
74430;PMS7003;62863;52.062;23.764;2023-08-06T01:55:41;21;18.6;14
74430;PMS7003;62863;52.062;23.764;2023-08-06T02:01:01;21.8;19.2;14.6
74430;PMS7003;62863;52.062;23.764;2023-08-06T02:05:35;21.8;19.8;13.8
74430;PMS7003;62863;52.062;23.764;2023-08-06T02:10:33;20.2;19;14.2
74430;PMS7003;62863;52.062;23.764;2023-08-06T02:15:31;21.8;19;14.4
74430;PMS7003;62863;52.062;23.764;2023-08-06T02:20:27;20.8;18.8;15
74430;PMS7003;62863;52.062;23.764;2023-08-06T02:25:19;22;19.8;14.6
74430;PMS7003;62863;52.062;23.764;2023-08-06T02:30:35;21;18.6;14
74430;PMS7003;62863;52.062;23.764;2023-08-06T02:35:43;21.8;19.4;14.6
74430;PMS7003;62863;52.062;23.764;2023-08-06T02:40:43;21.6;19.2;14.6
74430;PMS7003;62863;52.062;23.764;2023-08-06T02:45:43;20.8;19.6;15.6
74430;PMS7003;62863;52.062;23.764;2023-08-06T02:50:19;23.6;20.6;15.2
74430;PMS7003;62863;52.062;23.764;2023-08-06T02:55:19;21.2;19.6;15
74430;PMS7003;62863;52.062;23.764;2023-08-06T03:00:37;23.2;21;15.4
74430;PMS7003;62863;52.062;23.764;2023-08-06T03:05:51;21.8;20.3;15.3
74430;PMS7003;62863;52.062;23.764;2023-08-06T03:10:43;25.2;22.4;16
74430;PMS7003;62863;52.062;23.764;2023-08-06T03:15:43;22;20.8;16.2
74430;PMS7003;62863;52.062;23.764;2023-08-06T03:21:01;22.4;21.2;16.2
74430;PMS7003;62863;52.062;23.764;2023-08-06T03:25:49;23.6;21.4;16.2
74430;PMS7003;62863;52.062;23.764;2023-08-06T03:30:25;27.2;23.8;17.4
74430;PMS7003;62863;52.062;23.764;2023-08-06T03:35:51;24.8;21;16.2
74430;PMS7003;62863;52.062;23.764;2023-08-06T03:41:01;22.4;21.2;16.6
74430;PMS7003;62863;52.062;23.764;2023-08-06T03:45:59;24.2;23;16.8
74430;PMS7003;62863;52.062;23.764;2023-08-06T03:50:59;24.8;22.4;16.4
74430;PMS7003;62863;52.062;23.764;2023-08-06T03:56:01;24.2;23;17.4
74430;PMS7003;62863;52.062;23.764;2023-08-06T04:00:19;25;23.8;17.2
74430;PMS7003;62863;52.062;23.764;2023-08-06T04:05:19;24.4;22.8;17.2
74430;PMS7003;62863;52.062;23.764;2023-08-06T04:10:51;25.5;23.8;17
74430;PMS7003;62863;52.062;23.764;2023-08-06T04:15:43;24.4;21.2;16.2
74430;PMS7003;62863;52.062;23.764;2023-08-06T04:20:49;25.2;22;17.2
74430;PMS7003;62863;52.062;23.764;2023-08-06T04:25:51;22.6;21.4;15.6
74430;PMS7003;62863;52.062;23.764;2023-08-06T04:30:59;23.6;22;15.6
74430;PMS7003;62863;52.062;23.764;2023-08-06T04:35:19;22.6;21.6;15.8
74430;PMS7003;62863;52.062;23.764;2023-08-06T04:40:25;23;21.6;16.2
74430;PMS7003;62863;52.062;23.764;2023-08-06T04:45:35;22.4;20.2;14.8
74430;PMS7003;62863;52.062;23.764;2023-08-06T04:51:01;21.4;19.2;14.2
74430;PMS7003;62863;52.062;23.764;2023-08-06T04:55:51;20.6;19.2;14
74430;PMS7003;62863;52.062;23.764;2023-08-06T05:00:51;19.2;19;14
74430;PMS7003;62863;52.062;23.764;2023-08-06T05:05:33;22.4;19.6;14.2
74430;PMS7003;62863;52.062;23.764;2023-08-06T05:10:25;18.3;17.5;13.8
74430;PMS7003;62863;52.062;23.764;2023-08-06T05:15:59;21.6;19.4;14
74430;PMS7003;62863;52.062;23.764;2023-08-06T05:20:35;19;17.8;13
74430;PMS7003;62863;52.062;23.764;2023-08-06T05:25:19;20;19;13.6
74430;PMS7003;62863;52.062;23.764;2023-08-06T05:30:21;20;18.4;13.4
74430;PMS7003;62863;52.062;23.764;2023-08-06T05:36:01;19.4;17.6;14.2
74430;PMS7003;62863;52.062;23.764;2023-08-06T05:40:25;19;17.8;13.4
74430;PMS7003;62863;52.062;23.764;2023-08-06T05:45:19;18.4;16.2;12
74430;PMS7003;62863;52.062;23.764;2023-08-06T05:50:51;16.6;15;11.8
74430;PMS7003;62863;52.062;23.764;2023-08-06T05:55:43;14.8;13.8;11
74430;PMS7003;62863;52.062;23.764;2023-08-06T06:00:25;13.2;12.6;10
74430;PMS7003;62863;52.062;23.764;2023-08-06T06:05:19;13;12.2;10
74430;PMS7003;62863;52.062;23.764;2023-08-06T06:10:43;13.8;13.5;10.3
74430;PMS7003;62863;52.062;23.764;2023-08-06T06:15:25;13;12.2;10.2
74430;PMS7003;62863;52.062;23.764;2023-08-06T06:20:19;12.2;11.8;9.8
74430;PMS7003;62863;52.062;23.764;2023-08-06T06:26:01;11.8;11.4;9.6
74430;PMS7003;62863;52.062;23.764;2023-08-06T06:30:43;12.4;12.4;9.8
74430;PMS7003;62863;52.062;23.764;2023-08-06T06:35:33;12.2;12;10.2
74430;PMS7003;62863;52.062;23.764;2023-08-06T06:40:33;11.6;11;9.4
74430;PMS7003;62863;52.062;23.764;2023-08-06T06:45:19;12.2;11;9.2
74430;PMS7003;62863;52.062;23.764;2023-08-06T06:50:46;11.4;11.2;9
74430;PMS7003;62863;52.062;23.764;2023-08-06T06:55:41;12.4;12;9.6
74430;PMS7003;62863;52.062;23.764;2023-08-06T07:00:51;13.4;13;10.2
74430;PMS7003;62863;52.062;23.764;2023-08-06T07:05:43;13.4;12.8;10.4
74430;PMS7003;62863;52.062;23.764;2023-08-06T07:11:01;11.3;11.3;9.3
74430;PMS7003;62863;52.062;23.764;2023-08-06T07:15:33;12.8;12.8;10
74430;PMS7003;62863;52.062;23.764;2023-08-06T07:20:19;13;12.8;10
74430;PMS7003;62863;52.062;23.764;2023-08-06T07:25:19;14.4;13.2;10.4
74430;PMS7003;62863;52.062;23.764;2023-08-06T07:31:02;13.8;12.6;9.8
74430;PMS7003;62863;52.062;23.764;2023-08-06T07:35:19;15.6;13.6;11
74430;PMS7003;62863;52.062;23.764;2023-08-06T07:40:35;14.6;13;10.4
74430;PMS7003;62863;52.062;23.764;2023-08-06T07:46:01;13.8;13.6;10.8
74430;PMS7003;62863;52.062;23.764;2023-08-06T07:50:35;15.6;14.4;11.4
74430;PMS7003;62863;52.062;23.764;2023-08-06T07:55:25;14.2;13.8;10.8
74430;PMS7003;62863;52.062;23.764;2023-08-06T08:00:21;13.8;12.8;9.6
74430;PMS7003;62863;52.062;23.764;2023-08-06T08:05:59;15.2;13.4;10.6
74430;PMS7003;62863;52.062;23.764;2023-08-06T08:11:01;16;14.3;11
74430;PMS7003;62863;52.062;23.764;2023-08-06T08:16:01;16.8;15.6;12.4
74430;PMS7003;62863;52.062;23.764;2023-08-06T08:20:59;15.6;13.4;10.6
74430;PMS7003;62863;52.062;23.764;2023-08-06T08:25:45;17;14.8;11.4
74430;PMS7003;62863;52.062;23.764;2023-08-06T08:30:35;15;14;11
74430;PMS7003;62863;52.062;23.764;2023-08-06T08:35:49;14.8;13.6;10.8
74430;PMS7003;62863;52.062;23.764;2023-08-06T08:40:59;15.2;13.8;10.8
74430;PMS7003;62863;52.062;23.764;2023-08-06T08:45:49;12.4;11.2;9
74430;PMS7003;62863;52.062;23.764;2023-08-06T08:50:51;15;13.8;10.6
74430;PMS7003;62863;52.062;23.764;2023-08-06T08:56:01;15.4;13.4;9.4
74430;PMS7003;62863;52.062;23.764;2023-08-06T09:00:27;12.8;12.4;10
74430;PMS7003;62863;52.062;23.764;2023-08-06T09:05:25;14;12.6;10.2
74430;PMS7003;62863;52.062;23.764;2023-08-06T09:10:41;13;12.4;9.8
74430;PMS7003;62863;52.062;23.764;2023-08-06T09:16:01;15.5;13.8;11
74430;PMS7003;62863;52.062;23.764;2023-08-06T09:20:51;15.2;13.4;10.6
74430;PMS7003;62863;52.062;23.764;2023-08-06T09:25:51;15.4;13.8;10.8
74430;PMS7003;62863;52.062;23.764;2023-08-06T09:30:28;13;12.4;10
74430;PMS7003;62863;52.062;23.764;2023-08-06T09:35:43;13.8;12.2;9.4
74430;PMS7003;62863;52.062;23.764;2023-08-06T09:40:51;14.6;13.4;10.2
74430;PMS7003;62863;52.062;23.764;2023-08-06T09:45:19;13.8;12.4;10
74430;PMS7003;62863;52.062;23.764;2023-08-06T09:50:19;14.8;13.2;10.4
74430;PMS7003;62863;52.062;23.764;2023-08-06T09:55:25;13.8;12.4;9.8
74430;PMS7003;62863;52.062;23.764;2023-08-06T10:00:59;13.8;12.4;9
74430;PMS7003;62863;52.062;23.764;2023-08-06T10:05:19;14;12;9.2
74430;PMS7003;62863;52.062;23.764;2023-08-06T10:10:43;13;12;9.4
74430;PMS7003;62863;52.062;23.764;2023-08-06T10:15:59;11.8;10.8;8.8
74430;PMS7003;62863;52.062;23.764;2023-08-06T10:20:51;13.6;11.8;9.8
74430;PMS7003;62863;52.062;23.764;2023-08-06T10:25:33;11.2;10.8;8.6
74430;PMS7003;62863;52.062;23.764;2023-08-06T10:30:20;12.4;12;9.2
74430;PMS7003;62863;52.062;23.764;2023-08-06T10:35:45;11;9.8;7.8
74430;PMS7003;62863;52.062;23.764;2023-08-06T10:40:39;14.8;12.4;9.6
74430;PMS7003;62863;52.062;23.764;2023-08-06T10:45:59;11;10;8.2
74430;PMS7003;62863;52.062;23.764;2023-08-06T10:51:01;12.8;12;9
74430;PMS7003;62863;52.062;23.764;2023-08-06T10:55:43;12.4;10.6;8
74430;PMS7003;62863;52.062;23.764;2023-08-06T11:00:20;13;12.2;9.6
74430;PMS7003;62863;52.062;23.764;2023-08-06T11:05:19;11;10.8;8
74430;PMS7003;62863;52.062;23.764;2023-08-06T11:10:19;12.4;12.2;9.4
74430;PMS7003;62863;52.062;23.764;2023-08-06T11:15:25;13.8;13;9.3
74430;PMS7003;62863;52.062;23.764;2023-08-06T11:20:39;12.8;11.2;8.8
74430;PMS7003;62863;52.062;23.764;2023-08-06T11:25:43;14.2;12.6;9.4
74430;PMS7003;62863;52.062;23.764;2023-08-06T11:30:43;12.6;11.8;9
74430;PMS7003;62863;52.062;23.764;2023-08-06T11:35:43;13.6;12.6;9.4
74430;PMS7003;62863;52.062;23.764;2023-08-06T11:40:19;11.6;11;8.2
74430;PMS7003;62863;52.062;23.764;2023-08-06T11:45:29;12;11.2;8.8
74430;PMS7003;62863;52.062;23.764;2023-08-06T11:50:21;10.4;9.2;7.4
74430;PMS7003;62863;52.062;23.764;2023-08-06T11:55:59;10.6;9.8;7
74430;PMS7003;62863;52.062;23.764;2023-08-06T12:00:35;11.2;9.8;8.2
74430;PMS7003;62863;52.062;23.764;2023-08-06T12:05:45;12;11.4;8.8
74430;PMS7003;62863;52.062;23.764;2023-08-06T12:10:59;11.8;10.6;7.8
74430;PMS7003;62863;52.062;23.764;2023-08-06T12:15:49;13.5;12.3;9.5
74430;PMS7003;62863;52.062;23.764;2023-08-06T12:20:27;12;10.2;8.6
74430;PMS7003;62863;52.062;23.764;2023-08-06T12:25:49;14;12.2;9.6
74430;PMS7003;62863;52.062;23.764;2023-08-06T12:31:01;13;12.4;9.6
74430;PMS7003;62863;52.062;23.764;2023-08-06T12:36:01;14.2;11.4;9
74430;PMS7003;62863;52.062;23.764;2023-08-06T12:40:59;14.4;13.4;10
74430;PMS7003;62863;52.062;23.764;2023-08-06T12:45:59;15.6;13.8;10.4
74430;PMS7003;62863;52.062;23.764;2023-08-06T12:50:21;14.8;13.2;9.6
74430;PMS7003;62863;52.062;23.764;2023-08-06T12:55:41;13.6;12.2;9.4
74430;PMS7003;62863;52.062;23.764;2023-08-06T13:00:51;15.2;14;10.4
74430;PMS7003;62863;52.062;23.764;2023-08-06T13:06:01;14.4;13.4;10.4
74430;PMS7003;62863;52.062;23.764;2023-08-06T13:11:01;14.8;13.2;10.4
74430;PMS7003;62863;52.062;23.764;2023-08-06T13:15:51;16.5;14.8;11.3
74430;PMS7003;62863;52.062;23.764;2023-08-06T13:21:01;14.4;14.4;11
74430;PMS7003;62863;52.062;23.764;2023-08-06T13:25:21;15.6;14.2;10
74430;PMS7003;62863;52.062;23.764;2023-08-06T13:30:47;14.8;13.4;10.2
74430;PMS7003;62863;52.062;23.764;2023-08-06T13:35:41;14.2;13.6;9.8
74430;PMS7003;62863;52.062;23.764;2023-08-06T13:40:35;15.6;13.8;10
74430;PMS7003;62863;52.062;23.764;2023-08-06T13:45:51;14.4;14.2;11
74430;PMS7003;62863;52.062;23.764;2023-08-06T13:51:01;14.6;14;10.6
74430;PMS7003;62863;52.062;23.764;2023-08-06T13:55:21;13;12;9.6
74430;PMS7003;62863;52.062;23.764;2023-08-06T14:00:21;14.8;13.4;10.8
74430;PMS7003;62863;52.062;23.764;2023-08-06T14:05:53;16.8;15;11.2
74430;PMS7003;62863;52.062;23.764;2023-08-06T14:10:53;14.4;14.2;11.2
74430;PMS7003;62863;52.062;23.764;2023-08-06T14:15:35;13.8;13.3;10.8
74430;PMS7003;62863;52.062;23.764;2023-08-06T14:20:21;14.2;13.4;10
74430;PMS7003;62863;52.062;23.764;2023-08-06T14:26:01;13.2;11.8;9.4
74430;PMS7003;62863;52.062;23.764;2023-08-06T14:30:27;13.6;13;10.8
74430;PMS7003;62863;52.062;23.764;2023-08-06T14:35:35;15.2;14.8;11
74430;PMS7003;62863;52.062;23.764;2023-08-06T14:41:03;14.2;13.8;10.8
74430;PMS7003;62863;52.062;23.764;2023-08-06T14:45:51;15.8;15;11.2
74430;PMS7003;62863;52.062;23.764;2023-08-06T14:50:21;15.4;14.6;11.4
74430;PMS7003;62863;52.062;23.764;2023-08-06T14:55:35;16.4;15;11.6
74430;PMS7003;62863;52.062;23.764;2023-08-06T15:00:45;16.4;15.4;11.6
74430;PMS7003;62863;52.062;23.764;2023-08-06T15:05:21;16;14.2;10.8
74430;PMS7003;62863;52.062;23.764;2023-08-06T15:10:49;15;13.6;10.8
74430;PMS7003;62863;52.062;23.764;2023-08-06T15:16:03;16.2;15;11.4
74430;PMS7003;62863;52.062;23.764;2023-08-06T15:20:45;14;13;10.5
74430;PMS7003;62863;52.062;23.764;2023-08-06T15:25:35;17.8;15.8;10.8
74430;PMS7003;62863;52.062;23.764;2023-08-06T15:30:27;14;12.6;10
74430;PMS7003;62863;52.062;23.764;2023-08-06T15:35:35;15.6;14.4;10.4
74430;PMS7003;62863;52.062;23.764;2023-08-06T15:40:47;15;14;10
74430;PMS7003;62863;52.062;23.764;2023-08-06T15:45:37;15;14.2;10.6
74430;PMS7003;62863;52.062;23.764;2023-08-06T15:50:29;15.6;14.2;11.2
74430;PMS7003;62863;52.062;23.764;2023-08-06T15:56:03;16.2;15;11.2
74430;PMS7003;62863;52.062;23.764;2023-08-06T16:00:45;16.2;15;11
74430;PMS7003;62863;52.062;23.764;2023-08-06T16:05:29;13.8;12.6;9.4
74430;PMS7003;62863;52.062;23.764;2023-08-06T16:10:27;14;12.6;9.8
74430;PMS7003;62863;52.062;23.764;2023-08-06T16:15:27;13.8;13.2;10.4
74430;PMS7003;62863;52.062;23.764;2023-08-06T16:21:04;12.3;11.8;9.8
74430;PMS7003;62863;52.062;23.764;2023-08-06T16:25:36;14;13.4;9.4
74430;PMS7003;62863;52.062;23.764;2023-08-06T16:30:45;13;12;9
74430;PMS7003;62863;52.062;23.764;2023-08-06T16:36:03;13.4;12.4;9
74430;PMS7003;62863;52.062;23.764;2023-08-06T16:40:51;15.2;12.6;9.4
74430;PMS7003;62863;52.062;23.764;2023-08-06T16:45:21;13;11.4;8.8
74430;PMS7003;62863;52.062;23.764;2023-08-06T16:50:31;12.4;11.6;8.6
74430;PMS7003;62863;52.062;23.764;2023-08-06T16:56:03;13.4;12.4;8.4
74430;PMS7003;62863;52.062;23.764;2023-08-06T17:01:03;13.2;11.4;9.2
74430;PMS7003;62863;52.062;23.764;2023-08-06T17:06:03;14;12;9.4
74430;PMS7003;62863;52.062;23.764;2023-08-06T17:10:57;12.6;12;8.8
74430;PMS7003;62863;52.062;23.764;2023-08-06T17:16:03;13.4;12.6;8.8
74430;PMS7003;62863;52.062;23.764;2023-08-06T17:20:27;13.3;12.3;9.3
74430;PMS7003;62863;52.062;23.764;2023-08-06T17:26:03;13.2;12.6;10
74430;PMS7003;62863;52.062;23.764;2023-08-06T17:31:01;14;12.8;10
74430;PMS7003;62863;52.062;23.764;2023-08-06T17:35:53;15.2;14.2;9.8
74430;PMS7003;62863;52.062;23.764;2023-08-06T17:41:03;15.4;14.4;10
74430;PMS7003;62863;52.062;23.764;2023-08-06T17:45:35;15.4;13.6;10.4
74430;PMS7003;62863;52.062;23.764;2023-08-06T17:50:21;14.8;13.2;9.8
74430;PMS7003;62863;52.062;23.764;2023-08-06T17:56:03;14.2;12;9.8
74430;PMS7003;62863;52.062;23.764;2023-08-06T18:00:43;14.2;12.6;9.4
74430;PMS7003;62863;52.062;23.764;2023-08-06T18:05:21;14.2;12.8;8.8
74430;PMS7003;62863;52.062;23.764;2023-08-06T18:10:23;13.5;12.5;9.5
74430;PMS7003;62863;52.062;23.764;2023-08-06T18:16:03;14.2;12.8;9.4
74430;PMS7003;62863;52.062;23.764;2023-08-06T18:20:21;12.6;11.8;9
74430;PMS7003;62863;52.062;23.764;2023-08-06T18:25:35;13.4;11.4;8.4
74430;PMS7003;62863;52.062;23.764;2023-08-06T18:30:53;9.4;9.2;7.2
74430;PMS7003;62863;52.062;23.764;2023-08-06T18:35:39;11;9.8;7
74430;PMS7003;62863;52.062;23.764;2023-08-06T18:40:21;12.8;11.8;8.2
74430;PMS7003;62863;52.062;23.764;2023-08-06T18:45:21;12.8;10.8;8
74430;PMS7003;62863;52.062;23.764;2023-08-06T18:51:03;13.4;11.4;7.8
74430;PMS7003;62863;52.062;23.764;2023-08-06T18:55:21;12.2;11;8.2
74430;PMS7003;62863;52.062;23.764;2023-08-06T19:00:43;9.2;8.8;7
74430;PMS7003;62863;52.062;23.764;2023-08-06T19:06:03;8.4;8.2;6
74430;PMS7003;62863;52.062;23.764;2023-08-06T19:10:47;8.5;7.5;5.5
74430;PMS7003;62863;52.062;23.764;2023-08-06T19:15:35;7.8;7.6;5.4
74430;PMS7003;62863;52.062;23.764;2023-08-06T19:20:35;17.8;15.4;9.6
74430;PMS7003;62863;52.062;23.764;2023-08-06T19:25:43;13.8;11.8;8.6
74430;PMS7003;62863;52.062;23.764;2023-08-06T19:30:37;10.6;8.6;6.6
74430;PMS7003;62863;52.062;23.764;2023-08-06T19:35:45;9;8.6;6.6
74430;PMS7003;62863;52.062;23.764;2023-08-06T19:41:02;8.4;7.4;5.2
74430;PMS7003;62863;52.062;23.764;2023-08-06T19:45:47;9.2;7.2;5.6
74430;PMS7003;62863;52.062;23.764;2023-08-06T19:50:35;87.6;72;40
74430;PMS7003;62863;52.062;23.764;2023-08-06T19:55:21;80.2;64.8;37.8
74430;PMS7003;62863;52.062;23.764;2023-08-06T20:00:21;46.6;37.8;24.8
74430;PMS7003;62863;52.062;23.764;2023-08-06T20:05:29;19.8;16.4;12.2
74430;PMS7003;62863;52.062;23.764;2023-08-06T20:10:43;12.5;10.5;8
74430;PMS7003;62863;52.062;23.764;2023-08-06T20:16:03;9.6;8.4;6.2
74430;PMS7003;62863;52.062;23.764;2023-08-06T20:20:29;9.6;8.2;6.6
74430;PMS7003;62863;52.062;23.764;2023-08-06T20:25:37;9.4;8.2;6.2
74430;PMS7003;62863;52.062;23.764;2023-08-06T20:30:35;9.4;7.2;5.6
74430;PMS7003;62863;52.062;23.764;2023-08-06T20:35:21;10.4;9;6.8
74430;PMS7003;62863;52.062;23.764;2023-08-06T20:40:27;7.8;7.8;6.4
74430;PMS7003;62863;52.062;23.764;2023-08-06T20:46:01;8.2;7.4;5.8
74430;PMS7003;62863;52.062;23.764;2023-08-06T20:50:38;23.6;20.4;14.2
74430;PMS7003;62863;52.062;23.764;2023-08-06T20:55:45;12;10.8;7.6
74430;PMS7003;62863;52.062;23.764;2023-08-06T21:01:03;9.4;8.2;6
74430;PMS7003;62863;52.062;23.764;2023-08-06T21:05:57;8.4;7.4;5.4
74430;PMS7003;62863;52.062;23.764;2023-08-06T21:10:21;8.2;7.4;5.6
74430;PMS7003;62863;52.062;23.764;2023-08-06T21:15:23;8.3;6.8;5
74430;PMS7003;62863;52.062;23.764;2023-08-06T21:21:04;9;7.4;5.4
74430;PMS7003;62863;52.062;23.764;2023-08-06T21:25:54;7.6;6.2;4.8
74430;PMS7003;62863;52.062;23.764;2023-08-06T21:30:54;8.2;7.6;6
74430;PMS7003;62863;52.062;23.764;2023-08-06T21:36:04;9;8.2;6
74430;PMS7003;62863;52.062;23.764;2023-08-06T21:40:35;9.2;7.4;6
74430;PMS7003;62863;52.062;23.764;2023-08-06T21:45:28;9.2;8.6;6.8
74430;PMS7003;62863;52.062;23.764;2023-08-06T21:50:43;10.2;8.2;6
74430;PMS7003;62863;52.062;23.764;2023-08-06T21:56:04;10.8;9.4;6.8
74430;PMS7003;62863;52.062;23.764;2023-08-06T22:00:53;11;9.8;7.6
74430;PMS7003;62863;52.062;23.764;2023-08-06T22:05:53;12.4;10.6;8.2
74430;PMS7003;62863;52.062;23.764;2023-08-06T22:10:33;13.6;12;9
74430;PMS7003;62863;52.062;23.764;2023-08-06T22:15:35;12.5;11.5;8.3
74430;PMS7003;62863;52.062;23.764;2023-08-06T22:21:01;11.2;9.4;6.8
74430;PMS7003;62863;52.062;23.764;2023-08-06T22:25:41;12;10.2;8
74430;PMS7003;62863;52.062;23.764;2023-08-06T22:30:35;13.2;11;9
74430;PMS7003;62863;52.062;23.764;2023-08-06T22:35:51;13.2;11.6;7.6
74430;PMS7003;62863;52.062;23.764;2023-08-06T22:41:01;12.2;10.4;7.8
74430;PMS7003;62863;52.062;23.764;2023-08-06T22:45:35;9.6;9;6.4
74430;PMS7003;62863;52.062;23.764;2023-08-06T22:50:21;10.6;9.2;7.2
74430;PMS7003;62863;52.062;23.764;2023-08-06T22:56:01;12.8;10.4;7.8
74430;PMS7003;62863;52.062;23.764;2023-08-06T23:00:27;9.2;8.4;6
74430;PMS7003;62863;52.062;23.764;2023-08-06T23:05:35;9.2;8;6.4
74430;PMS7003;62863;52.062;23.764;2023-08-06T23:10:21;6.8;6.4;5
74430;PMS7003;62863;52.062;23.764;2023-08-06T23:16:01;7.3;5.8;4.8
74430;PMS7003;62863;52.062;23.764;2023-08-06T23:20:42;6.4;6.2;4.6
74430;PMS7003;62863;52.062;23.764;2023-08-06T23:25:21;5.6;5.4;3.8
74430;PMS7003;62863;52.062;23.764;2023-08-06T23:31:01;5.2;5.2;4.2
74430;PMS7003;62863;52.062;23.764;2023-08-06T23:35:45;5.2;4.6;3.2
74430;PMS7003;62863;52.062;23.764;2023-08-06T23:40:22;4.6;4.2;3.4
74430;PMS7003;62863;52.062;23.764;2023-08-06T23:45:35;5.2;4;2.8
74430;PMS7003;62863;52.062;23.764;2023-08-06T23:50:45;1.6;1.6;1.4
74430;PMS7003;62863;52.062;23.764;2023-08-06T23:55:21;1;0.6;0.4
